Tiempo atmosférico en la estación meteorológica de Andorra, Teruel (762 m.)



Fecha
DESCASC
Temp. máxima en grados centígrados (hora)
DESCASC
Temp. mínima en grados centígrados (hora)
DESCASC
Temp. media en grados centígrados
DESCASC
Racha de viento máxima en m/sg (hora)
DESCASC
Velocidad máxima media en intervalos de 10 minutos(hora)
DESCASC
Precipitaciones diarias en mm
DESCASC
Precipitaciones de 00:00 a 06:00 en mm
DESCASC
Precipitaciones de 06:00 a 12:00 en mm
DESCASC
Precipitaciones de 12:00 a 18:00 en mm
DESCASC
Precipitaciones de 18:00 a 24:00 en mm
DESCASC
05-04-2020 15.8 (15:20) 6 (05:10) 10.9 8.89 (15:00) 6.39 (14:10) 0 0 0 0 0
04-04-2020 15.5 (16:10) 4.1 (07:00) 9.8 12.78 (16:20) 10 (16:40) 0 0 0 0 0
03-04-2020 12.7 (17:00) 2 (07:40) 7.3 15.28 (01:10) 10.83 (01:10) 0.2 0.2 0 0 0
02-04-2020 11.5 (18:50) 5.8 (00:00) 8.7 12.78 (23:40) 9.44 (23:40) 1 0 0.6 0 0.4
01-04-2020 7.9 (15:30) 3.4 (00:00) 5.7 7.78 (12:40) 6.11 (13:00) 18 0 11 7 0
31-03-2020 4.2 (23:59) -0.6 (-00:0) 1.8 -- (--) -- (--) 7 0 0 6.8 0.2
30-03-2020 6.3 (00:00) 0.3 (00:00) 3.3 18.33 (07:50) 12.5 (07:50) 0 0 0 0 0
29-03-2020 15.3 (16:50) 4.5 (00:00) 9.9 17.78 (22:40) 13.06 (22:40) 0 0 0 0 0
28-03-2020 12.3 (14:30) 4.5 (00:00) 8.4 6.67 (16:00) 5.28 (23:30) 0 0 0 0 0
27-03-2020 9.3 (16:00) -0.9 (-00:0) 4.2 8.61 (07:30) 6.94 (07:30) 0 0 0 0 0
26-03-2020 9.7 (16:20) 1.3 (00:00) 5.5 18.89 (11:00) 13.06 (11:00) 0.2 0.2 0 0 0
25-03-2020 7.6 (14:40) 3.6 (00:00) 5.6 7.78 (11:00) 6.39 (11:00) 1.2 0.4 0.8 0 0
24-03-2020 9.2 (13:10) 5.8 (00:00) 7.5 10.83 (04:20) 7.22 (04:20) 0.8 0.8 0 0 0
23-03-2020 9.9 (14:00) 6.7 (00:00) 8.3 9.17 (23:40) 7.5 (23:40) 6.6 0 6.2 0.4 0
22-03-2020 9.8 (17:10) 5.8 (08:10) 7.8 7.5 (13:20) 6.11 (13:20) 0.2 0 0 0 0.2
21-03-2020 12.6 (16:00) 5.1 (00:00) 8.9 7.78 (19:30) 5.83 (19:30) 0 0 0 0 0
20-03-2020 11.7 (13:20) 5.1 (00:00) 8.4 11.39 (16:00) 8.89 (16:10) 0 0 0 0 0
19-03-2020 13.9 (15:40) 7.2 (00:00) 10.5 9.44 (15:40) 7.22 (17:10) 0 0 0 0 0
18-03-2020 12.8 (14:50) 7.4 (00:00) 10.1 6.94 (15:30) 5.28 (15:30) 0 0 0 0 0
17-03-2020 10.4 (14:40) 7.3 (00:00) 8.8 13.33 (16:00) 10.28 (16:00) 4.8 3.4 1.2 0.2 0
16-03-2020 10.1 (11:50) 4.9 (00:00) 7.5 13.61 (10:10) 9.44 (10:10) 23.4 1.2 0 5.6 16.6
15-03-2020 16.9 (15:30) 7.6 (00:00) 12.2 19.17 (22:20) 14.72 (22:20) 2.4 0 0 0.2 2.2
14-03-2020 16.8 (16:10) 4.7 (00:00) 10.7 8.89 (15:20) 5.28 (11:30) 0 0 0 0 0
13-03-2020 14.2 (16:00) 8.2 (05:30) 11.2 8.06 (04:10) 6.39 (04:00) 0 0 0 0 0
12-03-2020 21.5 (10:30) 11.4 (00:00) 16.4 9.72 (17:10) 6.67 (00:30) 0 0 0 0 0
11-03-2020 22.5 (15:10) 8.8 (00:00) 15.7 10 (10:40) 8.33 (11:00) 0 0 0 0 0

Gráficas

Temp. máximas Temp. mínimas Temp. medias Precipitaciones Rachas de viento máximas Velocidades máximas media en intervalos de 10 minutos

Datos horarios

Fecha y hora oficial Temperatura (ºC) Velocidad del viento (km/h) Dirección del viento Racha (km/h) Dirección de racha Precipitación (mm) Presión (hPa) Tendencia (hPa) Humedad (%)
2020-04-09 23:00:00 12.7 14 Sudoeste 25 Sur 0 -- -- 69
2020-04-09 22:00:00 14.1 18 Sur 23 Sur 0 -- -- 64
2020-04-09 21:00:00 14.7 12 Sur 22 Sudeste 0 -- -- 63
2020-04-09 20:00:00 15.6 14 Sur 26 Sur 0 -- -- 58
2020-04-09 19:00:00 16.8 13 Sur 23 Sur 0 -- -- 53
2020-04-09 18:00:00 17.5 15 Este 31 Este 0 -- -- 60
2020-04-09 17:00:00 17.5 21 Este 32 Este 0 -- -- 63
2020-04-09 16:00:00 17.5 18 Nordeste 34 Nordeste 0 -- -- 65
2020-04-09 15:00:00 16.5 23 Nordeste 32 Este 0 -- -- 71
2020-04-09 14:00:00 15.8 19 Nordeste 29 Este 0 -- -- 71
2020-04-09 13:00:00 15 16 Nordeste 23 Este 0 -- -- 77
2020-04-09 12:00:00 14.1 15 Nordeste 20 Este 0 -- -- 80
2020-04-09 11:00:00 12.8 11 Este 16 Este 0 -- -- 86
2020-04-09 10:00:00 12.1 8 Este 12 Nordeste 0 -- -- 91
2020-04-09 09:00:00 9.9 6 Oeste 13 Oeste 0 -- -- 97
2020-04-09 08:00:00 9.2 8 Sudoeste 12 Sudoeste 0 -- -- 95
2020-04-09 07:00:00 9.6 3 Sudoeste 7 Sudoeste 0 -- -- 95
2020-04-09 06:00:00 10.1 2 Nordeste 6 Oeste 0 -- -- 94
2020-04-09 05:00:00 9.9 0 Calma 9 Nordeste 0 -- -- 94
2020-04-09 04:00:00 10.2 4 Sudoeste 15 Sur 0 -- -- 95
2020-04-09 03:00:00 11 3 Sur 13 Sudoeste 0 -- -- 90
2020-04-09 02:00:00 10.3 11 Sudoeste 14 Sudoeste 0 -- -- 93
2020-04-09 01:00:00 11.3 12 Sur 21 Sur 0 -- -- 90
2020-04-09 00:00:00 12.7 9 Sudeste 13 Sudeste 0 -- -- 83
2020-04-08 23:00:00 12.7 9 Sudeste 16 Este 0 -- -- 85
2020-04-08 22:00:00 12.5 11 Este 18 Nordeste 0 -- -- 85
2020-04-08 21:00:00 13.7 16 Este 21 Nordeste 0 -- -- 78
2020-04-08 20:00:00 14.7 14 Este 16 Este 0 -- -- 75
2020-04-08 19:00:00 15 8 Este 16 Este 0 -- -- 74
2020-04-08 18:00:00 15 12 Nordeste 23 Este 0 -- -- 75
2020-04-08 17:00:00 14.9 13 Este 23 Nordeste 0 -- -- 77
2020-04-08 16:00:00 14.8 15 Nordeste 22 Nordeste 0 -- -- 78
2020-04-08 15:00:00 15.5 15 Nordeste 25 Nordeste 0 -- -- 74
2020-04-08 14:00:00 15.2 14 Nordeste 21 Nordeste 0 -- -- 78
2020-04-08 13:00:00 14.7 12 Nordeste 21 Nordeste 0 -- -- 81
2020-04-08 12:00:00 14.2 9 Nordeste 14 Nordeste 0 -- -- 81
2020-04-08 11:00:00 11.8 5 Este 14 Nordeste 0.2 -- -- 88
2020-04-08 10:00:00 10.5 3 Nordeste 8 Sur 0 -- -- 92
2020-04-08 09:00:00 9.2 0 Calma 5 Noroeste 0 -- -- 93
2020-04-08 08:00:00 8.5 6 Oeste 10 Oeste 0 -- -- 95
2020-04-08 07:00:00 8.5 0 Calma 12 Este 0 -- -- 94
2020-04-08 06:00:00 8.8 9 Este 12 Este 0 -- -- 95
2020-04-08 05:00:00 9.1 10 Oeste 13 Oeste 0 -- -- 96
2020-04-08 04:00:00 9.2 6 Sudoeste 12 Oeste 0 -- -- 95
2020-04-08 03:00:00 9.2 6 Sudoeste 17 Oeste 0 -- -- 95
2020-04-08 02:00:00 8.9 14 Oeste 21 Oeste 0 -- -- 95
2020-04-08 01:00:00 9.4 6 Sudoeste 10 Sudoeste 0 -- -- 91
2020-04-08 00:00:00 9.9 6 Sur 12 Oeste 0 -- -- 88
2020-04-07 23:00:00 10.2 5 Oeste 14 Sur 0 -- -- 88
2020-04-07 22:00:00 10.1 10 Sur 18 Sudoeste 0 -- -- 85
2020-04-07 21:00:00 10.9 15 Sur 19 Sur 0 -- -- 82
2020-04-07 20:00:00 12.2 10 Sudeste 19 Este 0 -- -- 77
2020-04-07 19:00:00 13.2 10 Este 21 Este 0 -- -- 77
2020-04-07 18:00:00 13.1 7 Sudeste 23 Este 0 -- -- 79
2020-04-07 17:00:00 13.9 17 Este 28 Este 0 -- -- 77
2020-04-07 16:00:00 13.5 18 Este 26 Este 0 -- -- 78
2020-04-07 15:00:00 12.3 16 Este 22 Este 0 -- -- 88
2020-04-07 14:00:00 11.9 16 Este 26 Nordeste 0 -- -- 95
2020-04-07 13:00:00 12.3 17 Nordeste 21 Nordeste 0 -- -- 95
2020-04-07 12:00:00 12.2 11 Este 14 Este 0.2 -- -- 96
2020-04-07 11:00:00 11.9 0 Calma 10 Este 0 -- -- 98
2020-04-07 10:00:00 10.5 9 Sudoeste 12 Sudoeste 0 -- -- 98
2020-04-07 09:00:00 9.6 3 Este 9 Este 0 -- -- 98
2020-04-07 08:00:00 9.4 7 Nordeste 13 Este 0 -- -- 97
2020-04-07 07:00:00 9.8 6 Este 10 Este 0 -- -- 97
2020-04-07 06:00:00 9.8 5 Nordeste 6 Nordeste 0 -- -- 96
2020-04-07 05:00:00 10.6 3 Sudeste 13 Este 0 -- -- 95
2020-04-07 04:00:00 10.9 6 Sudeste 11 Este 0.4 -- -- 96
2020-04-07 03:00:00 10.9 3 Sudeste 9 Sudoeste 0.4 -- -- 97
2020-04-07 02:00:00 10.7 5 Sur 12 Sudoeste 0 -- -- 96
2020-04-07 01:00:00 11.3 6 Este 12 Oeste 0.4 -- -- 96
2020-04-07 00:00:00 11.1 10 Sudoeste 17 Sudoeste 1 -- -- 95
2020-04-06 23:00:00 11.1 17 Sur 19 Sur 0.2 -- -- 91
2020-04-06 22:00:00 11.6 6 Sudoeste 9 Sudoeste 0 -- -- 91
2020-04-06 21:00:00 11.7 5 Oeste 11 Oeste 0 -- -- 91
2020-04-06 20:00:00 12.3 5 Norte 15 Norte 0 -- -- 87
2020-04-06 19:00:00 12.9 11 Norte 24 Nordeste 0 -- -- 83
2020-04-06 18:00:00 14.2 15 Norte 26 Nordeste 0.2 -- -- 77
2020-04-06 17:00:00 15.5 17 Nordeste 25 Nordeste 0 -- -- 69
2020-04-06 16:00:00 16.1 22 Nordeste 30 Este 0 -- -- 65
2020-04-06 15:00:00 15.1 21 Nordeste 29 Nordeste 0 -- -- 71
2020-04-06 14:00:00 14.6 18 Este 26 Este 0 -- -- 72
2020-04-06 13:00:00 13.3 16 Este 25 Nordeste 0 -- -- 75
2020-04-06 12:00:00 12.8 16 Nordeste 22 Nordeste 0 -- -- 82
2020-04-06 11:00:00 11.6 13 Este 17 Este 0 -- -- 82
2020-04-06 10:00:00 10 4 Este 7 Este 0 -- -- 86
2020-04-06 09:00:00 9 2 Este 10 Sudeste 0 -- -- 87
2020-04-06 08:00:00 8.5 5 Sudeste 10 Este 0 -- -- 86
2020-04-06 07:00:00 8.6 6 Este 10 Este 0 -- -- 87
2020-04-06 06:00:00 8.7 6 Este 14 Sur 0 -- -- 87
2020-04-06 05:00:00 9.1 13 Sur 18 Sur 0 -- -- 83
2020-04-06 04:00:00 8.8 13 Sur 14 Sudoeste 0 -- -- 85
2020-04-06 03:00:00 9.5 2 Oeste 12 Este 0 -- -- 82
2020-04-06 02:00:00 9.3 4 Sur 16 Sur 0 -- -- 82
2020-04-06 01:00:00 9.5 9 Sur 18 Sudoeste 0 -- -- 84
2020-04-06 00:00:00 9 15 Sudoeste 23 Sur 0 -- -- 86
2020-04-05 23:00:00 10 21 Sur 27 Sur 0 -- -- 80
2020-04-05 22:00:00 11.1 14 Sur 24 Sur 0 -- -- 76
2020-04-05 21:00:00 12.2 17 Sudeste 24 Este 0 -- -- 72
2020-04-05 20:00:00 13.5 17 Este 28 Este 0 -- -- 66
2020-04-05 19:00:00 14.3 21 Este 31 Este 0 -- -- 61
2020-04-05 18:00:00 14.1 20 Este 31 Este 0 -- -- 57
2020-04-05 17:00:00 13.9 21 Este 31 Este 0 -- -- 57
2020-04-05 16:00:00 14.3 22 Este 28 Este 0 -- -- 57
2020-04-05 15:00:00 14.9 21 Este 32 Este 0 -- -- 51
2020-04-05 14:00:00 14.2 17 Este 28 Este 0 -- -- 53
2020-04-05 13:00:00 13.8 10 Este 21 Sudeste 0 -- -- 51
2020-04-05 12:00:00 12.5 8 Sur 15 Sur 0 -- -- 54
2020-04-05 11:00:00 11.7 5 Este 12 Nordeste 0 -- -- 57
2020-04-05 10:00:00 8.5 3 Sur 8 Sur 0 -- -- 67
2020-04-05 09:00:00 8.6 3 Este 5 Este 0 -- -- 60
2020-04-05 08:00:00 7.3 0 Calma 9 Sudoeste 0 -- -- 63
2020-04-05 07:00:00 6.7 7 Sudoeste 15 Sur 0 -- -- 65
2020-04-05 06:00:00 6.5 16 Sur 18 Sudoeste 0 -- -- 66
2020-04-05 05:00:00 6.2 14 Sur 23 Sur 0 -- -- 68
2020-04-05 04:00:00 7.1 19 Sur 23 Sur 0 -- -- 64
2020-04-05 03:00:00 7 14 Sur 30 Sudeste 0 -- -- 66
2020-04-05 02:00:00 8.1 19 Sudeste 28 Sudeste 0 -- -- 62
2020-04-05 01:00:00 7.8 15 Sur 23 Sur 0 -- -- 67
2020-04-05 00:00:00 7.9 12 Sur 25 Sur 0 -- -- 71
2020-04-04 23:00:00 8.4 14 Sur 27 Sur 0 -- -- 73
2020-04-04 22:00:00 10.1 15 Sur 33 Sur 0 -- -- 67
2020-04-04 21:00:00 11.4 20 Sur 34 Sur 0 -- -- 64
2020-04-04 20:00:00 13.3 19 Sudeste 39 Sudeste 0 -- -- 58
2020-04-04 19:00:00 14.6 17 Sudeste 46 Este 0 -- -- 55
2020-04-04 18:00:00 15 31 Este 46 Este 0 -- -- 56
2020-04-04 17:00:00 15.4 34 Este 46 Este 0 -- -- 51
2020-04-04 16:00:00 15.4 28 Este 40 Este 0 -- -- 53
2020-04-04 15:00:00 14.9 28 Este 44 Este 0 -- -- 60
2020-04-04 14:00:00 13.9 24 Nordeste 31 Este 0 -- -- 68
2020-04-04 13:00:00 13.6 15 Nordeste 24 Este 0 -- -- 65
2020-04-04 12:00:00 12.9 13 Este 23 Nordeste 0 -- -- 62
2020-04-04 11:00:00 11.2 6 Nordeste 11 Nordeste 0 -- -- 65
2020-04-04 10:00:00 9.6 3 Nordeste 7 Nordeste 0 -- -- 69
2020-04-04 09:00:00 5.2 3 Oeste 12 Oeste 0 -- -- 79
2020-04-04 08:00:00 4.6 11 Oeste 19 Oeste 0 -- -- 77
2020-04-04 07:00:00 4.1 16 Oeste 20 Oeste 0 -- -- 81
2020-04-04 06:00:00 4.5 14 Oeste 16 Oeste 0 -- -- 82
2020-04-04 05:00:00 5 10 Oeste 17 Oeste 0 -- -- 83
2020-04-04 04:00:00 5.6 9 Oeste 14 Oeste 0 -- -- 81
2020-04-04 03:00:00 7 2 Sudoeste 10 Sudoeste 0 -- -- 74
2020-04-04 02:00:00 6.2 7 Sudoeste 10 Sudoeste 0 -- -- 77
2020-04-04 01:00:00 8.1 6 Sur 11 Sur 0 -- -- 70
2020-04-04 00:00:00 8.5 5 Sur 8 Sudoeste 0 -- -- 68
2020-04-03 23:00:00 8.3 7 Sur 12 Sur 0 -- -- 71
2020-04-03 22:00:00 8.6 8 Sur 10 Este 0 -- -- 70
2020-04-03 21:00:00 9.4 10 Este 11 Este 0 -- -- 65
2020-04-03 20:00:00 10.2 7 Nordeste 17 Norte 0 -- -- 60
2020-04-03 19:00:00 11.3 12 Norte 20 Noroeste 0 -- -- 54
2020-04-03 18:00:00 11.8 12 Norte 22 Noroeste 0 -- -- 53
2020-04-03 17:00:00 12.7 13 Noroeste 25 Noroeste 0 -- -- 57
2020-04-03 16:00:00 12.3 12 Noroeste 28 Noroeste 0 -- -- 59
2020-04-03 15:00:00 11 8 Noroeste 22 Noroeste 0 -- -- 66
2020-04-03 14:00:00 10.4 9 Oeste 23 Oeste 0 -- -- 65
2020-04-03 13:00:00 9 12 Oeste 26 Oeste 0 -- -- 69
2020-04-03 12:00:00 7.6 15 Oeste 31 Oeste 0 -- -- 66
2020-04-03 11:00:00 6.1 21 Oeste 32 Oeste 0 -- -- 70
2020-04-03 10:00:00 4.4 24 Oeste 31 Oeste 0 -- -- 74
2020-04-03 09:00:00 2.7 15 Oeste 22 Oeste 0 -- -- 81
2020-04-03 08:00:00 2 19 Oeste 26 Oeste 0 -- -- 82
2020-04-03 07:00:00 2.3 20 Oeste 32 Oeste 0 -- -- 82
2020-04-03 06:00:00 2.8 25 Oeste 36 Oeste 0 -- -- 81
2020-04-03 05:00:00 3.5 22 Oeste 28 Oeste 0 -- -- 81
2020-04-03 04:00:00 4.2 21 Oeste 34 Oeste 0 -- -- 81
2020-04-03 03:00:00 4.8 22 Oeste 42 Oeste 0 -- -- 79
2020-04-03 02:00:00 5.5 34 Oeste 55 Oeste 0 -- -- 75
2020-04-03 01:00:00 6.2 38 Noroeste 49 Oeste 0.2 -- -- 77
2020-04-03 00:00:00 6.7 31 Oeste 46 Noroeste 0.4 -- -- 83
2020-04-02 23:00:00 8.5 30 Noroeste 43 Noroeste 0 -- -- 74
2020-04-02 22:00:00 8.8 15 Oeste 24 Oeste 0 -- -- 86
2020-04-02 21:00:00 8.8 12 Oeste 16 Noroeste 0 -- -- 84
2020-04-02 20:00:00 10.2 12 Noroeste 21 Noroeste 0 -- -- 79
2020-04-02 19:00:00 11.3 11 Noroeste 23 Noroeste 0 -- -- 76
2020-04-02 18:00:00 10.8 15 Noroeste 22 Norte 0 -- -- 78
2020-04-02 17:00:00 10 14 Noroeste 21 Noroeste 0 -- -- 86
2020-04-02 16:00:00 8.5 13 Noroeste 19 Noroeste 0 -- -- 98
2020-04-02 15:00:00 8.3 6 Norte 15 Norte 0 -- -- 99
2020-04-02 14:00:00 7.1 11 Norte 18 Norte 0 -- -- 99
2020-04-02 13:00:00 6.7 13 Noroeste 18 Noroeste 0 -- -- 99
2020-04-02 12:00:00 6.9 14 Noroeste 21 Noroeste 0.2 -- -- 99
2020-04-02 11:00:00 6.8 8 Norte 14 Noroeste 0.2 -- -- 100
2020-04-02 10:00:00 6.5 8 Noroeste 12 Noroeste 0 -- -- 100
2020-04-02 09:00:00 5.9 7 Noroeste 9 Noroeste 0.2 -- -- 99
2020-04-02 08:00:00 5.9 6 Noroeste 13 Noroeste 0 -- -- 99
2020-04-02 07:00:00 5.8 8 Noroeste 13 Noroeste 0 -- -- 99
2020-04-02 06:00:00 5.9 9 Noroeste 16 Norte 0 -- -- 99
2020-04-02 05:00:00 6 7 Noroeste 15 Oeste 0 -- -- 99
2020-04-02 04:00:00 6.2 4 Noroeste 9 Noroeste 0 -- -- 99
2020-04-02 03:00:00 6.3 2 Norte 12 Oeste 0 -- -- 99
2020-04-02 02:00:00 6.3 8 Oeste 11 Oeste 0 -- -- 99
2020-04-02 01:00:00 6.4 5 Oeste 8 Oeste 0 -- -- 99
2020-04-02 00:00:00 6.4 0 Calma 9 Oeste 0 -- -- 98
2020-04-01 23:00:00 6.4 4 Noroeste 6 Noroeste 0 -- -- 98
2020-04-01 22:00:00 6.4 3 Norte 10 Nordeste 0 -- -- 98
2020-04-01 21:00:00 6.5 6 Nordeste 12 Nordeste 0 -- -- 98
2020-04-01 20:00:00 6.7 8 Nordeste 11 Nordeste 0 -- -- 98
2020-04-01 19:00:00 6.8 9 Nordeste 13 Nordeste 0 -- -- 98
2020-04-01 18:00:00 6.8 9 Nordeste 17 Nordeste 0 -- -- 98
2020-04-01 17:00:00 7 12 Nordeste 19 Este 0 -- -- 99
2020-04-01 16:00:00 7.4 12 Nordeste 17 Nordeste 0 -- -- 99
2020-04-01 15:00:00 7 7 Noroeste 13 Noroeste 1.6 -- -- 100
2020-04-01 14:00:00 6.1 7 Noroeste 26 Oeste 2.2 -- -- 99
2020-04-01 13:00:00 6.3 22 Oeste 28 Oeste 3.2 -- -- 100
2020-04-01 12:00:00 5.7 12 Oeste 18 Oeste 3.6 -- -- 99
2020-04-01 11:00:00 5.5 15 Oeste 19 Oeste 2.2 -- -- 99
2020-04-01 10:00:00 5.4 3 Oeste 7 Noroeste 1 -- -- 99
2020-04-01 09:00:00 5 0 Calma 14 Este 0.6 -- -- 99
2020-04-01 08:00:00 5.1 10 Este 15 Este 1.6 -- -- 99
2020-04-01 07:00:00 4.7 4 Sur 12 Este 2 -- -- 99
2020-04-01 06:00:00 4.4 11 Este 17 Este 0 -- -- 99
2020-04-01 05:00:00 3.9 6 Este 12 Este 0 -- -- 99
2020-04-01 04:00:00 3.6 4 Sudeste 10 Este 0 -- -- 99
2020-04-01 03:00:00 3.5 6 Nordeste 13 Este 0 -- -- 99
2020-04-01 02:00:00 3.6 9 Este 15 Este 0 -- -- 98
2020-04-01 01:00:00 3.9 13 Este 16 Este 0 -- -- 98
2020-04-01 00:00:00 4.2 8 Este 13 Este 0 -- -- 98
2020-03-31 23:00:00 3.8 9 Este 12 Este 0.2 -- -- 98
2020-03-31 22:00:00 3.2 2 Sur 7 Este 0 -- -- 98
2020-03-31 21:00:00 2.7 3 Este 11 Este 0 -- -- 98
2020-03-31 20:00:00 2.8 6 Este 10 Este 0 -- -- 98
2020-03-31 19:00:00 2.8 4 Este 9 Este 0 -- -- 98
2020-03-31 18:00:00 2.7 4 Este 10 Este 0.6 -- -- 97
2020-03-31 17:00:00 2.5 3 Sudoeste 8 Sudoeste 1.2 -- -- 97
2020-03-31 16:00:00 2.1 0 Calma 5 Nordeste 1.6 -- -- 97
2020-03-31 15:00:00 1.7 0 Calma 7 Norte 0.8 -- -- 97
2020-03-31 14:00:00 1.1 4 Norte 9 Nordeste 1.6 -- -- 97
2020-03-31 13:00:00 0.7 0 Calma 4 Nordeste 1 -- -- 97
2020-03-31 12:00:00 0.2 -- -- -- -- 0 -- -- 97
2020-03-31 11:00:00 0 -- -- -- -- 0 -- -- 97
2020-03-31 10:00:00 -0.4 -- -- -- -- 0 -- -- 97
2020-03-31 09:00:00 -0.5 -- -- -- -- 0 -- -- 96
2020-03-31 08:00:00 -0.4 -- -- -- -- -- -- -- 96
2020-03-31 07:00:00 -- -- -- -- -- -- -- -- --
2020-03-31 06:00:00 -- -- -- -- -- -- -- -- --
2020-03-31 05:00:00 -- -- -- -- -- -- -- -- --
2020-03-31 04:00:00 -- -- -- -- -- -- -- -- --
2020-03-31 03:00:00 -0.2 2 Noroeste 5 Noroeste 0 -- -- 94
2020-03-31 02:00:00 0 4 Noroeste 8 Noroeste 0 -- -- 93
2020-03-31 01:00:00 0.2 6 Noroeste 8 Noroeste 0 -- -- 93
2020-03-31 00:00:00 0.3 2 Sudoeste 8 Oeste 0 -- -- 93
2020-03-30 23:00:00 0.4 3 Oeste 11 Noroeste 0 -- -- 92
2020-03-30 22:00:00 0.5 8 Oeste 22 Oeste 0 -- -- 90
2020-03-30 21:00:00 1.6 19 Oeste 26 Oeste 0 -- -- 82
2020-03-30 20:00:00 2.4 20 Oeste 30 Oeste 0 -- -- 73
2020-03-30 19:00:00 3.4 12 Noroeste 19 Noroeste 0 -- -- 60
2020-03-30 18:00:00 4.2 13 Noroeste 28 Noroeste 0 -- -- 53
2020-03-30 17:00:00 4.3 18 Noroeste 27 Noroeste 0 -- -- 56
2020-03-30 16:00:00 4.4 19 Noroeste 28 Noroeste 0 -- -- 56
2020-03-30 15:00:00 4.2 15 Oeste 31 Oeste 0 -- -- 57
2020-03-30 14:00:00 4.1 22 Oeste 33 Oeste 0 -- -- 58
2020-03-30 13:00:00 2.9 20 Oeste 32 Oeste 0 -- -- 63
2020-03-30 12:00:00 2.8 22 Noroeste 43 Noroeste 0 -- -- 61
2020-03-30 11:00:00 2.1 32 Oeste 48 Oeste 0 -- -- 60
2020-03-30 10:00:00 1.9 33 Oeste 51 Oeste 0 -- -- 61
2020-03-30 09:00:00 2.1 27 Oeste 47 Oeste 0 -- -- 65
2020-03-30 08:00:00 2.2 36 Oeste 66 Oeste 0 -- -- 70
2020-03-30 07:00:00 2.8 42 Noroeste 52 Noroeste 0 -- -- 74
2020-03-30 06:00:00 4.1 31 Noroeste 45 Noroeste 0 -- -- 74
2020-03-30 05:00:00 4.3 33 Noroeste 52 Oeste 0 -- -- 81
2020-03-30 04:00:00 4.7 38 Oeste 51 Oeste 0 -- -- 82
2020-03-30 03:00:00 5.2 31 Oeste 44 Oeste 0 -- -- 81
2020-03-30 02:00:00 5.3 32 Oeste 46 Oeste 0 -- -- 81
2020-03-30 01:00:00 5.6 35 Oeste 48 Oeste 0 -- -- 79
2020-03-30 00:00:00 6.3 44 Oeste 56 Oeste 0 -- -- 75
2020-03-29 23:00:00 6.8 44 Oeste 64 Oeste 0 -- -- 72
2020-03-29 22:00:00 8 41 Noroeste 58 Noroeste 0 -- -- 68
2020-03-29 21:00:00 9.1 34 Oeste 49 Oeste 0 -- -- 62
2020-03-29 20:00:00 11.1 28 Noroeste 43 Noroeste 0 -- -- 53
2020-03-29 19:00:00 13.8 33 Noroeste 42 Noroeste 0 -- -- 46
2020-03-29 18:00:00 14.9 28 Noroeste 41 Noroeste 0 -- -- 38
2020-03-29 17:00:00 15.3 28 Noroeste 45 Norte 0 -- -- 33
2020-03-29 16:00:00 15.2 31 Noroeste 47 Noroeste 0 -- -- 35
2020-03-29 15:00:00 15 29 Noroeste 45 Noroeste 0 -- -- 38
2020-03-29 14:00:00 14 27 Noroeste 41 Noroeste 0 -- -- 44
2020-03-29 13:00:00 13.8 15 Noroeste 26 Noroeste 0 -- -- 48
2020-03-29 12:00:00 12.1 11 Noroeste 20 Oeste 0 -- -- 55
2020-03-29 11:00:00 9.9 16 Oeste 24 Oeste 0 -- -- 62
2020-03-29 10:00:00 7.7 22 Oeste 27 Oeste 0 -- -- 68
2020-03-29 09:00:00 5.7 23 Oeste 27 Oeste 0 -- -- 74
2020-03-29 08:00:00 4.7 19 Oeste 25 Oeste 0 -- -- 77
2020-03-29 07:00:00 4.8 18 Oeste 24 Oeste 0 -- -- 78
2020-03-29 06:00:00 4.7 20 Oeste 25 Oeste 0 -- -- 80
2020-03-29 05:00:00 4.9 23 Oeste 26 Oeste 0 -- -- 80
2020-03-29 03:00:00 6.8 18 Oeste 23 Oeste 0 -- -- 72
2020-03-29 01:00:00 7.1 18 Oeste 22 Oeste 0 -- -- 72
2020-03-29 00:00:00 6.9 14 Sudoeste 23 Oeste 0 -- -- 73
2020-03-28 23:00:00 7.9 13 Oeste 16 Oeste 0 -- -- 68
2020-03-28 22:00:00 9.1 9 Sudoeste 13 Sudoeste 0 -- -- 63
2020-03-28 21:00:00 9.9 4 Sudoeste 7 Oeste 0 -- -- 61
2020-03-28 20:00:00 10.2 3 Noroeste 6 Oeste 0 -- -- 60
2020-03-28 19:00:00 10.7 3 Norte 9 Nordeste 0 -- -- 58
2020-03-28 18:00:00 11.2 9 Este 19 Este 0 -- -- 55
2020-03-28 17:00:00 11.8 13 Nordeste 22 Este 0 -- -- 52
2020-03-28 16:00:00 11.8 10 Este 24 Nordeste 0 -- -- 55
2020-03-28 15:00:00 12.2 12 Nordeste 19 Este 0 -- -- 53
2020-03-28 14:00:00 11.5 7 Nordeste 20 Nordeste 0 -- -- 56
2020-03-28 13:00:00 11.7 11 Nordeste 22 Este 0 -- -- 55
2020-03-28 12:00:00 10.8 12 Nordeste 22 Este 0 -- -- 54
2020-03-28 11:00:00 9.8 2 Sudoeste 11 Oeste 0 -- -- 59
2020-03-28 10:00:00 7.4 8 Oeste 13 Oeste 0 -- -- 68
2020-03-28 09:00:00 5.3 8 Oeste 18 Oeste 0 -- -- 79
2020-03-28 08:00:00 4.9 14 Oeste 19 Oeste 0 -- -- 78
2020-03-28 07:00:00 4.6 12 Oeste 14 Oeste 0 -- -- 80
2020-03-28 06:00:00 4.8 11 Oeste 14 Oeste 0 -- -- 79
2020-03-28 05:00:00 4.9 10 Oeste 14 Oeste 0 -- -- 79
2020-03-28 04:00:00 4.9 12 Oeste 14 Oeste 0 -- -- 82
2020-03-28 03:00:00 5.5 3 Sudoeste 9 Este 0 -- -- 75
2020-03-28 02:00:00 5.1 6 Oeste 16 Oeste 0 -- -- 77
2020-03-28 01:00:00 5.1 10 Oeste 14 Oeste 0 -- -- 77
2020-03-28 00:00:00 5.6 5 Oeste 7 Oeste 0 -- -- 73
2020-03-27 23:00:00 6.3 7 Sur 13 Este 0 -- -- 69
2020-03-27 22:00:00 7 13 Este 14 Este 0 -- -- 63
2020-03-27 21:00:00 6.7 9 Este 14 Nordeste 0 -- -- 67
2020-03-27 20:00:00 6.9 10 Nordeste 17 Nordeste 0 -- -- 68
2020-03-27 19:00:00 8 11 Este 17 Este 0 -- -- 63
2020-03-27 18:00:00 8.7 10 Este 20 Nordeste 0 -- -- 59
2020-03-27 17:00:00 8.8 14 Este 25 Nordeste 0 -- -- 59
2020-03-27 16:00:00 9.3 11 Nordeste 27 Nordeste 0 -- -- 60
2020-03-27 15:00:00 8.8 14 Este 21 Este 0 -- -- 60
2020-03-27 14:00:00 8.1 10 Este 21 Este 0 -- -- 63
2020-03-27 13:00:00 7.1 4 Norte 16 Nordeste 0 -- -- 70
2020-03-27 12:00:00 6.4 3 Nordeste 14 Este 0 -- -- 73
2020-03-27 11:00:00 4.2 7 Nordeste 13 Este 0 -- -- 76
2020-03-27 10:00:00 3.1 7 Nordeste 14 Oeste 0 -- -- 81
2020-03-27 09:00:00 0.8 11 Oeste 18 Oeste 0 -- -- 84
2020-03-27 08:00:00 -0.1 7 Noroeste 31 Oeste 0 -- -- 85
2020-03-27 07:00:00 -0.9 19 Oeste 28 Oeste 0 -- -- 87
2020-03-27 06:00:00 -0.7 15 Oeste 19 Oeste 0 -- -- 87
2020-03-27 05:00:00 -0.2 9 Oeste 12 Oeste 0 -- -- 84
2020-03-27 04:00:00 0.1 9 Oeste 19 Oeste 0 -- -- 80
2020-03-27 03:00:00 0.4 15 Oeste 19 Oeste 0 -- -- 80
2020-03-27 02:00:00 0.9 10 Oeste 18 Oeste 0 -- -- 82
2020-03-27 01:00:00 1.2 15 Oeste 20 Oeste 0 -- -- 91
2020-03-27 00:00:00 1.6 14 Oeste 17 Oeste 0 -- -- 92
2020-03-26 23:00:00 1.7 6 Oeste 16 Este 0 -- -- 92
2020-03-26 22:00:00 2.4 13 Este 16 Este 0 -- -- 88
2020-03-26 21:00:00 4 6 Sur 10 Sur 0 -- -- 77
2020-03-26 20:00:00 3.5 5 Este 17 Este 0 -- -- 83
2020-03-26 19:00:00 3.8 17 Este 32 Este 0 -- -- 83
2020-03-26 18:00:00 7.4 23 Nordeste 40 Este 0 -- -- 63
2020-03-26 17:00:00 9 21 Noroeste 39 Noroeste 0 -- -- 42
2020-03-26 16:00:00 9.3 29 Noroeste 45 Noroeste 0 -- -- 45
2020-03-26 15:00:00 8 32 Noroeste 46 Noroeste 0 -- -- 47
2020-03-26 14:00:00 6.6 35 Noroeste 57 Noroeste 0 -- -- 56
2020-03-26 13:00:00 6.7 34 Noroeste 57 Noroeste 0 -- -- 62
2020-03-26 12:00:00 6.5 41 Noroeste 63 Noroeste 0 -- -- 64
2020-03-26 11:00:00 6.7 47 Noroeste 68 Noroeste 0 -- -- 62
2020-03-26 10:00:00 6.7 39 Noroeste 62 Noroeste 0 -- -- 70
2020-03-26 09:00:00 5.4 41 Noroeste 56 Noroeste 0 -- -- 76
2020-03-26 08:00:00 3.3 26 Oeste 34 Oeste 0 -- -- 86
2020-03-26 07:00:00 2.2 21 Oeste 27 Oeste 0 -- -- 88
2020-03-26 06:00:00 1.4 21 Oeste 31 Oeste 0 -- -- 92
2020-03-26 05:00:00 1.6 21 Oeste 31 Oeste 0.2 -- -- 97
2020-03-26 04:00:00 2.5 22 Oeste 27 Oeste 0 -- -- 97
2020-03-26 03:00:00 2.6 19 Oeste 22 Oeste 0 -- -- 96
2020-03-26 02:00:00 2.7 14 Oeste 17 Oeste 0 -- -- 95
2020-03-26 01:00:00 3.3 5 Oeste 10 Oeste 0 -- -- 93
2020-03-26 00:00:00 3.6 9 Oeste 13 Oeste 0 -- -- 90
2020-03-25 23:00:00 4.8 3 Este 10 Este 0 -- -- 85
2020-03-25 22:00:00 4.8 6 Este 11 Este 0 -- -- 84
2020-03-25 21:00:00 5 8 Este 12 Este 0 -- -- 84
2020-03-25 20:00:00 5.2 9 Este 13 Este 0 -- -- 86
2020-03-25 19:00:00 5.9 10 Este 19 Este 0 -- -- 84
2020-03-25 18:00:00 6.5 12 Este 19 Nordeste 0 -- -- 83
2020-03-25 17:00:00 6.6 10 Nordeste 24 Nordeste 0 -- -- 82
2020-03-25 16:00:00 6.6 17 Nordeste 23 Nordeste 0 -- -- 84
2020-03-25 15:00:00 7.4 12 Nordeste 20 Nordeste 0 -- -- 80
2020-03-25 14:00:00 6.4 13 Este 23 Este 0 -- -- 85
2020-03-25 13:00:00 6.4 15 Nordeste 22 Nordeste 0 -- -- 90
2020-03-25 12:00:00 6.2 6 Nordeste 18 Este 0 -- -- 87
2020-03-25 11:00:00 5 23 Este 28 Este 0 -- -- 91
2020-03-25 10:00:00 5.5 4 Este 14 Sudeste 0 -- -- 94
2020-03-25 09:00:00 4.3 11 Este 15 Este 0 -- -- 93
2020-03-25 08:00:00 4.3 8 Sudeste 17 Sudeste 0 -- -- 92
2020-03-25 07:00:00 4.5 9 Sudeste 17 Sudeste 0.8 -- -- 92
2020-03-25 06:00:00 4.9 9 Sur 12 Sur 0 -- -- 93
2020-03-25 05:00:00 5.2 5 Sur 8 Sur 0.4 -- -- 89
2020-03-25 04:00:00 5.8 2 Sur 18 Sudoeste 0 -- -- 83
2020-03-25 03:00:00 5.9 8 Sur 17 Sur 0 -- -- 82
2020-03-25 02:00:00 5.9 7 Sudeste 22 Sur 0 -- -- 84
2020-03-25 01:00:00 6.1 12 Sudeste 24 Sudeste 0 -- -- 83
2020-03-25 00:00:00 6.4 13 Sudeste 20 Sudeste 0 -- -- 80
2020-03-24 23:00:00 5.8 13 Sur 22 Sur 0 -- -- 84
2020-03-24 22:00:00 6 15 Sur 23 Sur 0 -- -- 84
2020-03-24 21:00:00 6.2 15 Sur 24 Sur 0 -- -- 82
2020-03-24 20:00:00 7.1 9 Sur 13 Sudeste 0 -- -- 78
2020-03-24 19:00:00 8.1 8 Sur 18 Sur 0 -- -- 75
2020-03-24 18:00:00 9 12 Sur 22 Sudeste 0 -- -- 74
2020-03-24 17:00:00 8.3 10 Sudeste 29 Este 0 -- -- 78
2020-03-24 16:00:00 8.8 10 Este 27 Este 0 -- -- 79
2020-03-24 15:00:00 8.7 13 Este 24 Este 0 -- -- 78
2020-03-24 14:00:00 9 10 Este 30 Este 0 -- -- 76
2020-03-24 13:00:00 9.1 19 Este 27 Este 0 -- -- 78
2020-03-24 12:00:00 8.1 15 Este 25 Este 0 -- -- 96
2020-03-24 11:00:00 7.2 16 Este 26 Este 0 -- -- 100
2020-03-24 10:00:00 6.8 18 Nordeste 26 Nordeste 0 -- -- 99
2020-03-24 09:00:00 6.8 16 Nordeste 19 Nordeste 0 -- -- 99
2020-03-24 08:00:00 6.5 13 Nordeste 14 Este 0 -- -- 99
2020-03-24 07:00:00 6.4 11 Este 21 Este 0 -- -- 99
2020-03-24 06:00:00 6.7 17 Este 26 Este 0 -- -- 99
2020-03-24 05:00:00 7.3 20 Este 39 Este 0.6 -- -- 98
2020-03-24 04:00:00 7.5 15 Este 22 Este 0.2 -- -- 98
2020-03-24 03:00:00 7.5 12 Este 21 Este 0 -- -- 98
2020-03-24 02:00:00 7.6 18 Este 24 Este 0 -- -- 97
2020-03-24 01:00:00 7.7 17 Este 31 Este 0 -- -- 96
2020-03-24 00:00:00 7.8 25 Este 33 Este 0 -- -- 96
2020-03-23 23:00:00 7.6 17 Este 29 Este 0 -- -- 96
2020-03-23 22:00:00 8 17 Este 24 Este 0 -- -- 96
2020-03-23 21:00:00 8.2 11 Este 17 Este 0 -- -- 96
2020-03-23 20:00:00 8.3 9 Este 20 Este 0 -- -- 94
2020-03-23 19:00:00 8.8 17 Este 28 Este 0 -- -- 88
2020-03-23 18:00:00 9.1 16 Este 30 Este 0 -- -- 84
2020-03-23 17:00:00 9.5 23 Este 32 Este 0 -- -- 83
2020-03-23 16:00:00 9.4 17 Este 25 Este 0 -- -- 91
2020-03-23 15:00:00 9.5 19 Este 24 Este 0 -- -- 88
2020-03-23 14:00:00 9.9 14 Este 19 Este 0 -- -- 89
2020-03-23 13:00:00 8.1 5 Este 11 Este 0.4 -- -- 98
2020-03-23 12:00:00 7.2 13 Este 21 Este 2.2 -- -- 98
2020-03-23 11:00:00 7.5 13 Este 17 Este 0.8 -- -- 98
2020-03-23 10:00:00 7.2 9 Este 12 Este 2 -- -- 98
2020-03-23 09:00:00 7.3 8 Este 12 Este 1.2 -- -- 98
2020-03-23 08:00:00 7.2 9 Nordeste 10 Nordeste 0 -- -- 98
2020-03-23 07:00:00 6.9 4 Nordeste 10 Este 0 -- -- 97
2020-03-23 06:00:00 6.9 5 Nordeste 11 Nordeste 0 -- -- 97
2020-03-23 05:00:00 6.8 6 Este 12 Este 0 -- -- 97
2020-03-23 04:00:00 7.1 8 Este 10 Nordeste 0 -- -- 96
2020-03-23 03:00:00 7.1 10 Nordeste 14 Nordeste 0 -- -- 93
2020-03-23 02:00:00 7.9 5 Este 9 Este 0 -- -- 84
2020-03-23 01:00:00 7.6 8 Este 13 Este 0 -- -- 88
2020-03-23 00:00:00 8 7 Sudeste 15 Sur 0 -- -- 83
2020-03-22 23:00:00 8.1 12 Sur 19 Sur 0 -- -- 83
2020-03-22 22:00:00 7.9 9 Este 17 Sur 0 -- -- 90
2020-03-22 21:00:00 8.4 9 Sudeste 16 Sudeste 0 -- -- 91
2020-03-22 20:00:00 8.5 10 Sur 14 Sur 0.2 -- -- 92
2020-03-22 19:00:00 8.7 10 Este 22 Este 0 -- -- 90
2020-03-22 18:00:00 9.5 21 Este 27 Este 0 -- -- 82
2020-03-22 17:00:00 9.6 19 Este 25 Este 0 -- -- 81
2020-03-22 16:00:00 9.6 19 Este 27 Este 0 -- -- 82
2020-03-22 15:00:00 9.4 16 Este 26 Este 0 -- -- 82
2020-03-22 14:00:00 8.8 17 Este 27 Este 0 -- -- 85
2020-03-22 13:00:00 8.9 19 Este 24 Este 0 -- -- 80
2020-03-22 12:00:00 9.1 18 Este 23 Este 0 -- -- 78
2020-03-22 11:00:00 9.1 10 Este 16 Este 0 -- -- 80
2020-03-22 10:00:00 8.7 4 Oeste 7 Oeste 0 -- -- 85
2020-03-22 09:00:00 6.7 4 Oeste 6 Oeste 0 -- -- 94
2020-03-22 08:00:00 5.9 2 Nordeste 8 Noroeste 0 -- -- 92
2020-03-22 07:00:00 6 4 Norte 7 Norte 0 -- -- 92
2020-03-22 06:00:00 6.7 0 Calma 6 Oeste 0 -- -- 93
2020-03-22 05:00:00 6.8 0 Calma 6 Norte 0 -- -- 90
2020-03-22 04:00:00 6.9 2 Noroeste 18 Norte 0 -- -- 90
2020-03-22 03:00:00 7.7 12 Norte 17 Norte 0 -- -- 84
2020-03-22 02:00:00 8.1 4 Sudoeste 9 Sur 0 -- -- 83
2020-03-22 01:00:00 9.1 6 Sur 10 Sur 0 -- -- 76
2020-03-22 00:00:00 8.5 9 Sur 17 Sur 0 -- -- 84
2020-03-21 23:00:00 8.9 12 Sur 17 Sur 0 -- -- 82
2020-03-21 22:00:00 8.9 12 Sur 19 Sur 0 -- -- 82
2020-03-21 21:00:00 9.5 13 Sudeste 21 Sudeste 0 -- -- 80
2020-03-21 20:00:00 9.6 14 Este 28 Este 0 -- -- 78
2020-03-21 19:00:00 11 16 Nordeste 21 Este 0 -- -- 63
2020-03-21 18:00:00 11.8 20 Este 25 Este 0 -- -- 60
2020-03-21 17:00:00 12.3 14 Nordeste 22 Este 0 -- -- 61
2020-03-21 16:00:00 12.6 11 Nordeste 21 Este 0 -- -- 61
2020-03-21 15:00:00 12.3 14 Este 22 Este 0 -- -- 61
2020-03-21 14:00:00 12 15 Este 24 Este 0 -- -- 64
2020-03-21 13:00:00 11.3 11 Este 24 Nordeste 0 -- -- 68
2020-03-21 12:00:00 10.8 14 Este 22 Este 0 -- -- 68
2020-03-21 11:00:00 9.7 14 Este 23 Este 0 -- -- 72
2020-03-21 10:00:00 8.2 16 Este 23 Este 0 -- -- 75
2020-03-21 09:00:00 7.4 15 Este 20 Este 0 -- -- 78
2020-03-21 08:00:00 6 11 Sudeste 19 Sur 0 -- -- 80
2020-03-21 07:00:00 5.6 14 Sudeste 22 Sudeste 0 -- -- 79
2020-03-21 06:00:00 5.6 13 Sudeste 18 Sudeste 0 -- -- 80
2020-03-21 05:00:00 5.7 10 Sudeste 21 Este 0 -- -- 78
2020-03-21 04:00:00 6.4 7 Sudeste 19 Sur 0 -- -- 76
2020-03-21 03:00:00 6.5 14 Sur 24 Sur 0 -- -- 77
2020-03-21 02:00:00 6.5 14 Sur 27 Sudeste 0 -- -- 79
2020-03-21 01:00:00 7 17 Sur 25 Sur 0 -- -- 80
2020-03-21 00:00:00 7.2 12 Sudeste 24 Sur 0 -- -- 80
2020-03-20 23:00:00 7.4 13 Sudeste 25 Sudeste 0 -- -- 81
2020-03-20 22:00:00 7.6 11 Este 21 Sudeste 0 -- -- 81
2020-03-20 21:00:00 8 17 Este 25 Este 0 -- -- 80
2020-03-20 20:00:00 8.6 19 Este 28 Sudeste 0 -- -- 77
2020-03-20 19:00:00 9.5 21 Este 31 Este 0 -- -- 77
2020-03-20 18:00:00 10.8 24 Este 37 Este 0 -- -- 70
2020-03-20 17:00:00 10.9 29 Este 40 Este 0 -- -- 70
2020-03-20 16:00:00 11.4 30 Este 41 Este 0 -- -- 68
2020-03-20 15:00:00 11 16 Este 34 Este 0 -- -- 70
2020-03-20 14:00:00 11.2 24 Este 33 Este 0 -- -- 74
2020-03-20 13:00:00 11 22 Este 31 Este 0 -- -- 75
2020-03-20 12:00:00 10.8 21 Este 37 Este 0 -- -- 74
2020-03-20 11:00:00 10.3 14 Este 33 Sudeste 0 -- -- 69
2020-03-20 10:00:00 8.7 15 Este 30 Este 0 -- -- 74
2020-03-20 09:00:00 7 10 Este 22 Sudeste 0 -- -- 79
2020-03-20 08:00:00 6.1 14 Sudeste 26 Sudeste 0 -- -- 80
2020-03-20 07:00:00 5.6 9 Sudeste 18 Sudeste 0 -- -- 82
2020-03-20 06:00:00 5.4 12 Sur 23 Sur 0 -- -- 83
2020-03-20 05:00:00 5.3 15 Sur 22 Sur 0 -- -- 85
2020-03-20 04:00:00 5.8 15 Sudeste 34 Sudeste 0 -- -- 83
2020-03-20 03:00:00 6 22 Sudeste 30 Sudeste 0 -- -- 81
2020-03-20 02:00:00 6.1 13 Sudeste 28 Sudeste 0 -- -- 81
2020-03-20 01:00:00 6.8 14 Sudeste 23 Sudeste 0 -- -- 80
2020-03-20 00:00:00 7.2 6 Sur 25 Sudeste 0 -- -- 81
2020-03-19 23:00:00 7.6 15 Sudeste 29 Sudeste 0 -- -- 79
2020-03-19 22:00:00 8 22 Sudeste 28 Sudeste 0 -- -- 78
2020-03-19 21:00:00 9 18 Sudeste 25 Sudeste 0 -- -- 74
2020-03-19 20:00:00 10 13 Sudeste 23 Sudeste 0 -- -- 69
2020-03-19 19:00:00 11.6 17 Sudeste 31 Sudeste 0 -- -- 57
2020-03-19 18:00:00 12.7 18 Nordeste 33 Este 0 -- -- 66
2020-03-19 17:00:00 13.4 26 Este 32 Este 0 -- -- 62
2020-03-19 16:00:00 13.8 23 Nordeste 34 Este 0 -- -- 62
2020-03-19 15:00:00 13.4 23 Este 31 Este 0 -- -- 65
2020-03-19 14:00:00 12.8 21 Este 30 Este 0 -- -- 67
2020-03-19 13:00:00 13 19 Este 30 Este 0 -- -- 63
2020-03-19 12:00:00 12.4 21 Este 30 Este 0 -- -- 51
2020-03-19 11:00:00 11.3 13 Este 18 Este 0 -- -- 58
2020-03-19 10:00:00 9.5 8 Sur 15 Sudeste 0 -- -- 59
2020-03-19 09:00:00 8.6 6 Sur 14 Sudeste 0 -- -- 60
2020-03-19 08:00:00 9.3 10 Sudeste 15 Sudeste 0 -- -- 58
2020-03-19 07:00:00 9.4 9 Sudeste 15 Sudeste 0 -- -- 60
2020-03-19 06:00:00 8.8 9 Sur 15 Sudeste 0 -- -- 63
2020-03-19 05:00:00 9 10 Sudeste 18 Sudeste 0 -- -- 62
2020-03-19 04:00:00 8.5 12 Sur 15 Sur 0 -- -- 65
2020-03-19 03:00:00 8.4 12 Sur 15 Sudoeste 0 -- -- 68
2020-03-19 02:00:00 8.5 10 Sur 14 Sur 0 -- -- 74
2020-03-19 01:00:00 8.5 12 Sur 14 Sur 0 -- -- 77
2020-03-19 00:00:00 8.7 13 Sur 14 Sur 0 -- -- 91
2020-03-18 23:00:00 9.3 7 Sur 9 Sur 0 -- -- 92
2020-03-18 22:00:00 9.9 5 Sudeste 6 Sudeste 0 -- -- 86
2020-03-18 21:00:00 10 5 Este 6 Este 0 -- -- 89
2020-03-18 20:00:00 10.1 6 Este 10 Este 0 -- -- 92
2020-03-18 19:00:00 10.6 8 Nordeste 15 Nordeste 0 -- -- 91
2020-03-18 18:00:00 11.2 14 Nordeste 20 Nordeste 0 -- -- 88
2020-03-18 17:00:00 12 17 Este 23 Este 0 -- -- 82
2020-03-18 16:00:00 12.3 17 Nordeste 25 Este 0 -- -- 78
2020-03-18 15:00:00 12.7 17 Nordeste 23 Nordeste 0 -- -- 79
2020-03-18 14:00:00 12.4 13 Nordeste 21 Nordeste 0 -- -- 76
2020-03-18 13:00:00 11.5 12 Este 18 Nordeste 0 -- -- 79
2020-03-18 12:00:00 10.9 6 Nordeste 14 Este 0 -- -- 86
2020-03-18 11:00:00 9.6 9 Este 14 Nordeste 0 -- -- 89
2020-03-18 10:00:00 8.9 7 Nordeste 9 Nordeste 0 -- -- 84
2020-03-18 09:00:00 7.5 4 Sudoeste 8 Sur 0 -- -- 85
2020-03-18 08:00:00 7.4 5 Sur 8 Sur 0 -- -- 83
2020-03-18 07:00:00 7.6 4 Sudeste 9 Sur 0 -- -- 81
2020-03-18 06:00:00 8.2 2 Este 13 Sudeste 0 -- -- 79
2020-03-18 05:00:00 9.3 10 Sudeste 14 Sudeste 0 -- -- 73
2020-03-18 04:00:00 8.5 12 Sur 14 Sur 0 -- -- 78
2020-03-18 03:00:00 8.5 10 Sur 13 Sur 0 -- -- 85
2020-03-18 02:00:00 8.5 7 Sur 9 Sudeste 0 -- -- 91
2020-03-18 01:00:00 8.5 5 Sudoeste 10 Sudeste 0 -- -- 91
2020-03-18 00:00:00 8.8 5 Este 11 Este 0 -- -- 91
2020-03-17 23:00:00 8.6 6 Este 11 Este 0 -- -- 93
2020-03-17 22:00:00 8.8 8 Este 15 Este 0 -- -- 93
2020-03-17 21:00:00 9.1 10 Este 14 Este 0 -- -- 94
2020-03-17 20:00:00 9.1 9 Este 18 Este 0 -- -- 95
2020-03-17 19:00:00 9.6 18 Este 32 Este 0 -- -- 96
2020-03-17 18:00:00 10 26 Este 39 Este 0 -- -- 97
2020-03-17 17:00:00 10.3 31 Este 46 Este 0 -- -- 98
2020-03-17 16:00:00 10.1 37 Este 48 Este 0 -- -- 99
2020-03-17 15:00:00 10.1 26 Este 39 Este 0 -- -- 100
2020-03-17 14:00:00 10 32 Este 47 Este 0 -- -- 100
2020-03-17 13:00:00 9.8 29 Este 47 Este 0.2 -- -- 100
2020-03-17 12:00:00 9.8 22 Este 32 Este 0.4 -- -- 100
2020-03-17 11:00:00 9.8 22 Este 32 Nordeste 0.2 -- -- 100
2020-03-17 10:00:00 9.4 25 Este 33 Este 0.2 -- -- 100
2020-03-17 09:00:00 9.1 26 Este 34 Este 0.2 -- -- 100
2020-03-17 08:00:00 8.8 25 Este 37 Este 0.2 -- -- 100
2020-03-17 07:00:00 8.8 29 Este 40 Este 0 -- -- 100
2020-03-17 06:00:00 8.9 29 Este 41 Este 2.4 -- -- 99
2020-03-17 05:00:00 9 30 Este 45 Este 0.6 -- -- 99
2020-03-17 04:00:00 9 31 Este 39 Este 0 -- -- 99
2020-03-17 03:00:00 8.3 21 Nordeste 26 Nordeste 0.4 -- -- 99
2020-03-17 02:00:00 7.8 14 Nordeste 18 Nordeste 0 -- -- 99
2020-03-17 01:00:00 7.5 10 Nordeste 19 Nordeste 0 -- -- 99
2020-03-17 00:00:00 7.3 9 Norte 15 Norte 0.2 -- -- 99
2020-03-16 23:00:00 6.1 8 Oeste 16 Oeste 0.8 -- -- 98
2020-03-16 22:00:00 6.9 5 Norte 18 Oeste 2 -- -- 99
2020-03-16 21:00:00 5.4 14 Oeste 23 Oeste 3.8 -- -- 98
2020-03-16 20:00:00 5.2 16 Oeste 31 Oeste 5.4 -- -- 98
2020-03-16 19:00:00 5 24 Oeste 34 Oeste 4.4 -- -- 98
2020-03-16 18:00:00 5 19 Oeste 27 Oeste 0.4 -- -- 98
2020-03-16 17:00:00 5.2 17 Oeste 22 Oeste 1.4 -- -- 97
2020-03-16 16:00:00 5.2 15 Oeste 26 Noroeste 0.8 -- -- 97
2020-03-16 15:00:00 5.3 15 Noroeste 27 Oeste 1 -- -- 97
2020-03-16 14:00:00 5.9 19 Oeste 24 Noroeste 1.2 -- -- 94
2020-03-16 13:00:00 8.9 14 Nordeste 40 Este 0.8 -- -- 91
2020-03-16 12:00:00 9.8 26 Este 39 Este 0 -- -- 84
2020-03-16 11:00:00 9.6 25 Este 49 Este 0 -- -- 78
2020-03-16 10:00:00 8.3 26 Este 45 Este 0 -- -- 83
2020-03-16 09:00:00 8.1 24 Este 38 Este 0 -- -- 93
2020-03-16 08:00:00 7.9 20 Este 33 Este 0 -- -- 91
2020-03-16 07:00:00 7.9 15 Este 30 Este 0 -- -- 89
2020-03-16 06:00:00 7.8 10 Sudeste 30 Sudeste 0 -- -- 89
2020-03-16 05:00:00 8.2 17 Sudeste 28 Sur 0 -- -- 85
2020-03-16 04:00:00 7.9 13 Sudeste 22 Sudeste 0.2 -- -- 86
2020-03-16 03:00:00 8.5 14 Este 22 Este 0.8 -- -- 96
2020-03-16 02:00:00 8.9 15 Este 21 Oeste 0.2 -- -- 93
2020-03-16 01:00:00 9.6 11 Oeste 33 Sur 0 -- -- 87
2020-03-16 00:00:00 9.8 17 Sur 56 Sur 0.4 -- -- 87
2020-03-15 23:00:00 9.8 40 Sur 69 Sudoeste 1.8 -- -- 84
2020-03-15 22:00:00 12.6 35 Sudoeste 67 Sudoeste 0 -- -- 67
2020-03-15 21:00:00 12.8 21 Sur 33 Sur 0 -- -- 70
2020-03-15 20:00:00 12.9 19 Sur 30 Sur 0 -- -- 71
2020-03-15 19:00:00 14.2 11 Sudeste 20 Sur 0 -- -- 68
2020-03-15 18:00:00 15 10 Este 19 Este 0 -- -- 74
2020-03-15 17:00:00 15.7 14 Norte 28 Norte 0 -- -- 71
2020-03-15 16:00:00 16 19 Norte 28 Norte 0.2 -- -- 69
2020-03-15 15:00:00 16.5 23 Nordeste 31 Este 0 -- -- 61
2020-03-15 14:00:00 15 24 Este 34 Este 0 -- -- 63
2020-03-15 13:00:00 14 21 Este 25 Este 0 -- -- 53
2020-03-15 12:00:00 14.7 13 Nordeste 21 Nordeste 0 -- -- 54
2020-03-15 11:00:00 13.3 10 Este 17 Este 0 -- -- 53
2020-03-15 10:00:00 11.9 7 Nordeste 10 Este 0 -- -- 50
2020-03-15 09:00:00 10 5 Este 8 Este 0 -- -- 56
2020-03-15 08:00:00 7.6 4 Oeste 7 Oeste 0 -- -- 55
2020-03-15 07:00:00 8.4 3 Norte 6 Nordeste 0 -- -- 52
2020-03-15 06:00:00 9 2 Noroeste 7 Nordeste 0 -- -- 47
2020-03-15 05:00:00 10 5 Este 8 Nordeste 0 -- -- 44
2020-03-15 04:00:00 9.5 3 Sudeste 8 Sur 0 -- -- 42
2020-03-15 03:00:00 8.9 6 Sur 7 Sur 0 -- -- 44
2020-03-15 02:00:00 10 3 Sudeste 13 Sur 0 -- -- 42
2020-03-15 01:00:00 10.8 5 Este 10 Este 0 -- -- 41
2020-03-15 00:00:00 11 4 Nordeste 6 Nordeste 0 -- -- 37
2020-03-14 23:00:00 12.3 2 Este 5 Sur 0 -- -- 34
2020-03-14 22:00:00 12.6 3 Sur 8 Sur 0 -- -- 34
2020-03-14 21:00:00 12.6 0 Calma 3 Sur 0 -- -- 33
2020-03-14 20:00:00 13.4 2 Noroeste 4 Norte 0 -- -- 31
2020-03-14 19:00:00 14.2 5 Norte 10 Norte 0 -- -- 32
2020-03-14 18:00:00 15.7 8 Norte 17 Norte 0 -- -- 29
2020-03-14 17:00:00 15.9 10 Norte 24 Noroeste 0 -- -- 28
2020-03-14 16:00:00 16.7 15 Noroeste 32 Norte 0 -- -- 27
2020-03-14 15:00:00 16 18 Norte 27 Noroeste 0 -- -- 30
2020-03-14 14:00:00 15.9 16 Norte 26 Noroeste 0 -- -- 30
2020-03-14 13:00:00 15 11 Norte 31 Oeste 0 -- -- 34
2020-03-14 12:00:00 13.3 15 Oeste 28 Oeste 0 -- -- 50
2020-03-14 11:00:00 11.8 9 Noroeste 22 Oeste 0 -- -- 57
2020-03-14 10:00:00 9.7 5 Oeste 12 Oeste 0 -- -- 75
2020-03-14 09:00:00 6.4 7 Sudoeste 15 Sudoeste 0 -- -- 86
2020-03-14 08:00:00 4.9 13 Sudoeste 18 Oeste 0 -- -- 89
2020-03-14 07:00:00 4.7 15 Oeste 18 Oeste 0 -- -- 90
2020-03-14 06:00:00 5.7 11 Oeste 14 Oeste 0 -- -- 87
2020-03-14 05:00:00 5.8 12 Oeste 15 Oeste 0 -- -- 87
2020-03-14 04:00:00 6.1 13 Oeste 18 Oeste 0 -- -- 87
2020-03-14 03:00:00 6.8 14 Sudoeste 16 Sudoeste 0 -- -- 83
2020-03-14 02:00:00 7.4 11 Oeste 14 Oeste 0 -- -- 83
2020-03-14 01:00:00 7.5 12 Oeste 16 Oeste 0 -- -- 82
2020-03-14 00:00:00 8.5 10 Oeste 15 Noroeste 0 -- -- 78
2020-03-13 23:00:00 9.5 6 Noroeste 24 Noroeste 0 -- -- 76
2020-03-13 22:00:00 10.4 21 Noroeste 26 Noroeste 0 -- -- 74
2020-03-13 21:00:00 11.6 19 Noroeste 25 Noroeste 0 -- -- 73
2020-03-13 20:00:00 12.2 9 Norte 16 Norte 0 -- -- 68
2020-03-13 19:00:00 12.5 11 Norte 21 Norte 0 -- -- 67
2020-03-13 18:00:00 13.2 13 Norte 18 Norte 0 -- -- 65
2020-03-13 17:00:00 13.7 11 Nordeste 22 Nordeste 0 -- -- 65
2020-03-13 16:00:00 14.2 9 Nordeste 19 Nordeste 0 -- -- 63
2020-03-13 15:00:00 13.9 6 Nordeste 19 Nordeste 0 -- -- 63
2020-03-13 14:00:00 13.7 11 Nordeste 20 Nordeste 0 -- -- 63
2020-03-13 13:00:00 13.1 9 Oeste 15 Oeste 0 -- -- 65
2020-03-13 12:00:00 11.9 11 Oeste 20 Oeste 0 -- -- 68
2020-03-13 11:00:00 11.7 12 Oeste 23 Oeste 0 -- -- 70
2020-03-13 10:00:00 10.2 16 Oeste 24 Oeste 0 -- -- 78
2020-03-13 09:00:00 9 23 Oeste 28 Oeste 0 -- -- 83
2020-03-13 08:00:00 8.5 19 Oeste 26 Oeste 0 -- -- 85
2020-03-13 07:00:00 8.5 16 Oeste 22 Oeste 0 -- -- 86
2020-03-13 06:00:00 8.2 13 Sudoeste 24 Oeste 0 -- -- 87
2020-03-13 05:00:00 8.3 19 Oeste 29 Oeste 0 -- -- 87
2020-03-13 04:00:00 8.6 23 Oeste 28 Oeste 0 -- -- 87
2020-03-13 03:00:00 9.1 19 Oeste 25 Oeste 0 -- -- 87
2020-03-13 02:00:00 9.4 19 Oeste 29 Oeste 0 -- -- 87
2020-03-13 01:00:00 10.1 19 Oeste 21 Oeste 0 -- -- 86
2020-03-13 00:00:00 11.4 13 Oeste 19 Oeste 0 -- -- 83
2020-03-12 23:00:00 12.7 11 Noroeste 23 Noroeste 0 -- -- 79
2020-03-12 22:00:00 14.2 17 Noroeste 29 Noroeste 0 -- -- 75
2020-03-12 21:00:00 17.1 12 Noroeste 22 Noroeste 0 -- -- 58
2020-03-12 20:00:00 17.3 13 Noroeste 17 Noroeste 0 -- -- 57
2020-03-12 19:00:00 18.7 10 Norte 23 Nordeste 0 -- -- 54
2020-03-12 18:00:00 20.3 11 Noroeste 35 Este 0 -- -- 49
2020-03-12 17:00:00 20.1 8 Sudeste 23 Este 0 -- -- 51
2020-03-12 16:00:00 20.5 15 Nordeste 22 Este 0 -- -- 50
2020-03-12 15:00:00 21.3 18 Nordeste 23 Nordeste 0 -- -- 47
2020-03-12 14:00:00 20.6 17 Nordeste 21 Este 0 -- -- 51
2020-03-12 13:00:00 20.5 12 Nordeste 19 Nordeste 0 -- -- 53
2020-03-12 12:00:00 21 12 Nordeste 18 Nordeste 0 -- -- 50
2020-03-12 11:00:00 20.7 9 Este 13 Este 0 -- -- 51
2020-03-12 10:00:00 20 3 Sur 14 Sur 0 -- -- 47
2020-03-12 09:00:00 15.8 7 Oeste 16 Sudoeste 0 -- -- 52
2020-03-12 08:00:00 15.8 16 Sur 19 Sur 0 -- -- 50
2020-03-12 07:00:00 14.6 14 Sudoeste 22 Oeste 0 -- -- 53
2020-03-12 06:00:00 14.4 19 Oeste 25 Oeste 0 -- -- 53
2020-03-12 05:00:00 14.1 22 Oeste 25 Oeste 0 -- -- 54
2020-03-12 04:00:00 14.7 16 Oeste 19 Oeste 0 -- -- 52
2020-03-12 03:00:00 15.6 17 Oeste 19 Oeste 0 -- -- 50
2020-03-12 02:00:00 16.1 16 Oeste 24 Oeste 0 -- -- 48
2020-03-12 01:00:00 15.8 22 Oeste 26 Oeste 0 -- -- 49
2020-03-12 00:00:00 16.4 19 Oeste 23 Oeste 0 -- -- 48
2020-03-11 23:00:00 16.6 15 Oeste 19 Oeste 0 -- -- 49
2020-03-11 22:00:00 17.5 15 Sudoeste 19 Sudoeste 0 -- -- 45
2020-03-11 21:00:00 18.4 17 Sur 20 Sur 0 -- -- 45
2020-03-11 20:00:00 19.2 9 Sur 13 Sudeste 0 -- -- 42
2020-03-11 19:00:00 19.3 9 Este 15 Este 0 -- -- 43
2020-03-11 18:00:00 19.7 11 Este 18 Este 0 -- -- 43
2020-03-11 17:00:00 20.5 12 Este 24 Este 0 -- -- 40
2020-03-11 16:00:00 21.8 14 Nordeste 19 Norte 0 -- -- 38
2020-03-11 15:00:00 22.4 10 Nordeste 21 Nordeste 0 -- -- 35
2020-03-11 14:00:00 21.7 13 Nordeste 22 Noroeste 0 -- -- 37
2020-03-11 13:00:00 21.7 19 Oeste 28 Oeste 0 -- -- 31
2020-03-11 12:00:00 19.9 19 Oeste 35 Oeste 0 -- -- 37
2020-03-11 11:00:00 17.8 30 Oeste 36 Oeste 0 -- -- 42
2020-03-11 10:00:00 15 24 Oeste 30 Oeste 0 -- -- 55
2020-03-11 09:00:00 10.9 22 Oeste 27 Oeste 0 -- -- 68
2020-03-11 08:00:00 9.4 19 Oeste 24 Oeste 0 -- -- 69
2020-03-11 07:00:00 8.9 18 Oeste 24 Oeste 0 -- -- 69
2020-03-11 06:00:00 9.6 12 Oeste 18 Oeste 0 -- -- 68
2020-03-11 05:00:00 10.7 14 Sudoeste 30 Oeste 0 -- -- 64
2020-03-11 04:00:00 10.1 23 Oeste 26 Oeste 0 -- -- 68
2020-03-11 03:00:00 10.9 17 Sudoeste 21 Oeste 0 -- -- 64
2020-03-11 02:00:00 10.9 16 Oeste 21 Oeste 0 -- -- 65
2020-03-11 01:00:00 11.5 14 Oeste 27 Oeste 0 -- -- 63
2020-03-11 00:00:00 11.7 24 Oeste 28 Oeste 0 -- -- 62